Maravan Saturday 2019 Marathon and Relay

Saturday, November 23, 2019 06:57 (GMT+0) - Final results

Race info
Sport: Running
Location: Humberston, United Kingdom
Start type: Manual wave start
Wave grouping: Custom
Racers: 70
Timed on: samsung SM-T585
Timed with: Webscorer PRO 4.2
Updated: Saturday, November 23, 2019 19:02 (GMT+0)
Organized by: Vigilantes Running - MARAVAN
Race website: www.vigilantesrunning.co.uk

Contact organizer

Use this form to send an email to the organizer.

Your name
Your email address
Confirm email address
Message to organizer
Send

  • Overall
Place Bib Racer name Affiliation Category Age Gender Finish time
1123Jonathan FowlerGrimsby Tri Club Team of 4 2:57:05.0--100%35.39%31.40%
2103Kirk RevelerMarra men Team of 4 3:11:21.0+14:16.0+8.06%92.54%30.18%25.88%
3112Sarah Wells Team of 4 3:13:52.8+16:47.8+9.49%91.34%29.26%24.90%
4121David Hodkinson3 Men and A Tri Baby Team of 4 3:16:43.5+19:38.5+11.09%90.02%28.22%23.79%
547mark patrick Solo52M 3:20:30.6+23:25.6+13.23%88.32%26.84%22.33%
6129DAMIAN shawJust keep running Team of 4 3:29:32.1+32:27.1+18.33%84.51%23.55%18.83%
77Andrew ByattCaistor RC Solo48M 3:30:27.6+33:22.6+18.85%84.14%23.21%18.47%
8120David BlastlandDi made us do it! Team of 4 3:31:46.1+34:41.1+19.59%83.62%22.74%17.97%
9127Gary ThomasFranklin College Team of 4 3:36:22.9+39:17.9+22.19%81.84%21.05%16.18%
10130Robert PritchardGYTRI Shufflers Team of 4 3:37:33.6+40:28.6+22.86%81.40%20.62%15.72%
11118James Braithwaite Team of 4 3:38:04.1+40:59.1+23.14%81.21%20.44%15.53%
125Barry HolcombeWolds Veteran RC Solo43M 3:38:34.5+41:29.5+23.43%81.02%20.25%15.33%
1317Mike WellsCaistor RC Solo44M 3:41:11.7+44:06.7+24.91%80.06%19.30%14.32%
14122Diane PrattMulti ability Team of 4 3:43:52.0+46:47.0+26.42%79.10%18.32%13.28%
15107Hannah SalahPace Cadets Team of 4 3:46:39.1+49:34.1+27.99%78.13%17.30%12.20%
16125Matthew StoreyTeam 2 - HR, BB, SN, SN Team of 4 3:55:40.5+58:35.5+33.09%75.14%14.01%8.71%
17111Hannah SmithCaistor fab 4 Team of 4 3:58:26.3+1:01:21.3+34.65%74.27%13.00%7.64%
1831Robert Allen Solo51M 4:00:25.5+1:03:20.5+35.77%73.65%12.28%6.87%
19104Caroline Whitfield Team of 4 4:01:58.2+1:04:53.2+36.64%73.18%11.72%6.27%
20102Frankie Thomas Team of 4 4:03:09.7+1:06:04.7+37.31%72.83%11.28%5.81%
2155Andrew HawkinsGrimsby Harriers AC Solo44M 4:04:52.9+1:07:47.9+38.29%72.31%10.65%5.14%
22124Matthew StoreyTeam 1 - AK, LC, LB, LC Team of 4 4:08:13.7+1:11:08.7+40.18%71.34%9.43%3.84%
2340sue francisAckworth Road Runners Solo56F 4:11:01.5+1:13:56.5+41.76%70.54%8.41%2.76%
2436Rowan BoothCaistor RC Solo37F 4:11:49.2+1:14:44.2+42.20%70.32%8.12%2.45%
2523RODERICK BURTONCaistor RC Solo65M 4:11:50.4+1:14:45.4+42.22%70.32%8.11%2.44%
26131Jo Ramsay Team of 4 4:12:39.2+1:15:34.2+42.67%70.09%7.82%2.13%
2728Lewis Birch Solo26M 4:14:37.2+1:17:32.2+43.79%69.55%7.10%1.37%
2834Martin BownDenby Dale AC Solo47M 4:14:40.0+1:17:35.0+43.81%69.54%7.08%1.35%
299Lauren FlindersLonely Goat RC Solo37F 4:14:51.3+1:17:46.3+43.92%69.48%7.01%1.28%
3019Karen Wickens Solo39F 4:16:05.4+1:19:00.4+44.62%69.15%6.56%0.80%
31110Leah Maddison Team of 4 4:17:20.2+1:20:15.2+45.32%68.81%6.11%0.32%
3218Paul GriffithsCleethorpes and District AC Solo44M 4:18:04.5+1:20:59.5+45.74%68.62%5.84%0.03%
3325Neil ThompsonCleethorpes and District AC Solo36M 4:18:06.1+1:21:01.1+45.75%68.61%5.83%0.02%
3426Craig EdwardsCleethorpes and District AC SoloM 4:18:06.3+1:21:01.3+45.75%68.61%5.83%0.02%
3537Russell TattershallCaistor RC Solo56M 4:18:11.8+1:21:06.8+45.81%68.58%5.80%-0.02%
36101Anne-Marie FowlerClee Belles Team of 4 4:19:04.6+1:21:59.6+46.30%68.35%5.47%-0.36%
37106adrian joyce Team of 4 4:19:09.5+1:22:04.5+46.35%68.33%5.44%-0.39%
3858Matthew Welch SoloM 4:21:02.8+1:23:57.8+47.41%67.84%4.76%-1.12%
3911Dean LongmanYaxley Runners Joggers Solo44M 4:24:09.6+1:27:04.6+49.17%67.04%3.62%-2.33%
40119Lucy Bell Team of 4 4:26:53.8+1:29:48.8+50.72%66.35%2.62%-3.39%
4132Sarah Andrews Solo48F 4:29:37.9+1:32:32.9+52.26%65.68%1.62%-4.45%
4227John AckroydYaxley Runners Joggers Solo54M 4:33:01.8+1:35:56.8+54.18%64.86%0.38%-5.76%
434Chris RamsayCaistor RC Solo46M 4:34:00.1+1:36:55.1+54.73%64.63%0.03%-6.14%
4448Brian FoxWolds Veteran RC Solo58M 4:35:21.9+1:38:16.9+55.50%64.31%-0.47%-6.67%
45105michelle hewsonBlister Sisters Team of 4 4:39:42.6+1:42:37.6+57.95%63.31%-2.05%-8.35%
4622Rebecca LinsdellLonely Goat RC Solo42F 4:39:56.3+1:42:51.3+58.08%63.26%-2.14%-8.44%
4757Nick PayneGrantham Running Club Solo42M 4:40:32.2+1:43:27.2+58.42%63.12%-2.36%-8.67%
481Rebecca ParryWigston Phoenix RC Solo47F 4:42:22.5+1:45:17.5+59.46%62.71%-3.03%-9.38%
49126Matt StoreyTeam 3: Watford Team of 4 4:42:40.0+1:45:35.0+59.62%62.65%-3.13%-9.50%
5045Peter Higgott Solo23M 4:55:43.6+1:58:38.6+67.00%59.88%-7.90%-14.56%
51113Sue BurtonCRC Sali forth Team of 4 5:01:52.6+2:04:47.6+70.47%58.66%-10.14%-16.94%
52115James Braithwaite Team of 4 5:09:10.1+2:12:05.1+74.59%57.28%-12.80%-19.76%
53116James Braithwaite Team of 4 5:14:41.4+2:17:36.4+77.71%56.27%-14.82%-21.90%
5442ian odgers100 Marathon Club Solo51M 5:18:00.3+2:20:55.3+79.58%55.69%-16.03%-23.19%
5513Peter StoneDerbyshire Dynamos Solo58M 5:18:43.1+2:21:38.1+79.98%55.56%-16.29%-23.46%
5630Fiona CraigCaistor RC Solo40F 5:19:46.5+2:22:41.5+80.58%55.38%-16.67%-23.87%
57114James Braithwaite Team of 4 5:32:18.4+2:35:13.4+87.66%53.29%-21.24%-28.73%
5835Roy SimpsonAckworth Road Runners Solo63M 5:46:13.4+2:49:08.4+95.51%51.15%-26.32%-34.12%
5954Caroline CopelandAckworth Road Runners Solo43F 5:46:14.7+2:49:09.7+95.53%51.14%-26.33%-34.13%
6051Debbie BartonAckworth Road Runners Solo53F 5:57:05.8+3:00:00.8+101.65%49.59%-30.29%-38.33%
6152Paul BartonAckworth Road Runners Solo54M 5:57:06.4+3:00:01.4+101.66%49.59%-30.29%-38.33%
6210Ian VallanceYaxley Runners Joggers Solo45M 6:00:58.1+3:03:53.1+103.84%49.06%-31.70%-39.83%
6359James Braithwaite SoloM 6:12:09.3+3:15:04.3+110.16%47.58%-35.78%-44.16%
6414Bill Howes100 Marathon Club Solo70M 6:26:34.9+3:29:29.9+118.30%45.81%-41.05%-49.75%
6515Pauline Howes100 Marathon Club Solo68F 6:26:35.2+3:29:30.2+118.31%45.81%-41.05%-49.75%
668Chris MatherWolds Veteran RC Solo48M 6:37:51.7+3:40:46.7+124.67%44.51%-45.16%-54.12%
6720Kathleen YoungCaistor RC Solo68F 6:59:32.1+4:02:27.1+136.91%42.21%-53.07%-62.52%
6821John Young Solo70M 7:25:31.7+4:28:26.7+151.59%39.75%-62.55%-72.58%
-38Tom CamponiAckworth Road Runners Solo34M DNF-----
-3Laura SutherlandCaistor RC Solo31F DNF-----
  • Solo
Place Bib Racer name Affiliation Category Age Gender Finish time
147mark patrick Solo52M 3:20:30.6--100%31.67%26.56%
27Andrew ByattCaistor RC Solo48M 3:30:27.6+9:57.0+4.96%95.27%28.28%22.92%
35Barry HolcombeWolds Veteran RC Solo43M 3:38:34.5+18:03.9+9.01%91.74%25.52%19.94%
417Mike WellsCaistor RC Solo44M 3:41:11.7+20:41.1+10.32%90.65%24.62%18.99%
531Robert Allen Solo51M 4:00:25.5+39:54.9+19.91%83.40%18.07%11.94%
655Andrew HawkinsGrimsby Harriers AC Solo44M 4:04:52.9+44:22.3+22.13%81.88%16.55%10.31%
740sue francisAckworth Road Runners Solo56F 4:11:01.5+50:30.9+25.19%79.88%14.46%8.06%
836Rowan BoothCaistor RC Solo37F 4:11:49.2+51:18.6+25.59%79.62%14.19%7.77%
923RODERICK BURTONCaistor RC Solo65M 4:11:50.4+51:19.8+25.60%79.62%14.18%7.76%
1028Lewis Birch Solo26M 4:14:37.2+54:06.6+26.99%78.75%13.23%6.74%
1134Martin BownDenby Dale AC Solo47M 4:14:40.0+54:09.4+27.01%78.73%13.22%6.73%
129Lauren FlindersLonely Goat RC Solo37F 4:14:51.3+54:20.7+27.10%78.68%13.15%6.66%
1319Karen Wickens Solo39F 4:16:05.4+55:34.8+27.72%78.30%12.73%6.20%
1418Paul GriffithsCleethorpes and District AC Solo44M 4:18:04.5+57:33.9+28.71%77.69%12.06%5.48%
1525Neil ThompsonCleethorpes and District AC Solo36M 4:18:06.1+57:35.5+28.72%77.69%12.05%5.47%
1626Craig EdwardsCleethorpes and District AC SoloM 4:18:06.3+57:35.7+28.72%77.69%12.05%5.47%
1737Russell TattershallCaistor RC Solo56M 4:18:11.8+57:41.2+28.77%77.66%12.01%5.43%
1858Matthew Welch SoloM 4:21:02.8+1:00:32.2+30.19%76.81%11.04%4.39%
1911Dean LongmanYaxley Runners Joggers Solo44M 4:24:09.6+1:03:39.0+31.74%75.90%9.98%3.25%
2032Sarah Andrews Solo48F 4:29:37.9+1:09:07.3+34.47%74.36%8.12%1.24%
2127John AckroydYaxley Runners Joggers Solo54M 4:33:01.8+1:12:31.2+36.17%73.44%6.96%0.00%
224Chris RamsayCaistor RC Solo46M 4:34:00.1+1:13:29.5+36.65%73.18%6.63%-0.36%
2348Brian FoxWolds Veteran RC Solo58M 4:35:21.9+1:14:51.3+37.33%72.82%6.16%-0.86%
2422Rebecca LinsdellLonely Goat RC Solo42F 4:39:56.3+1:19:25.7+39.61%71.63%4.61%-2.53%
2557Nick PayneGrantham Running Club Solo42M 4:40:32.2+1:20:01.6+39.91%71.47%4.40%-2.75%
261Rebecca ParryWigston Phoenix RC Solo47F 4:42:22.5+1:21:51.9+40.83%71.01%3.78%-3.42%
2745Peter Higgott Solo23M 4:55:43.6+1:35:13.0+47.49%67.80%-0.77%-8.31%
2842ian odgers100 Marathon Club Solo51M 5:18:00.3+1:57:29.7+58.60%63.05%-8.37%-16.47%
2913Peter StoneDerbyshire Dynamos Solo58M 5:18:43.1+1:58:12.5+58.95%62.91%-8.61%-16.73%
3030Fiona CraigCaistor RC Solo40F 5:19:46.5+1:59:15.9+59.48%62.70%-8.97%-17.12%
3135Roy SimpsonAckworth Road Runners Solo63M 5:46:13.4+2:25:42.8+72.67%57.91%-17.98%-26.81%
3254Caroline CopelandAckworth Road Runners Solo43F 5:46:14.7+2:25:44.1+72.68%57.91%-17.99%-26.82%
3351Debbie BartonAckworth Road Runners Solo53F 5:57:05.8+2:36:35.2+78.09%56.15%-21.69%-30.79%
3452Paul BartonAckworth Road Runners Solo54M 5:57:06.4+2:36:35.8+78.10%56.15%-21.69%-30.79%
3510Ian VallanceYaxley Runners Joggers Solo45M 6:00:58.1+2:40:27.5+80.03%55.55%-23.01%-32.21%
3659James Braithwaite SoloM 6:12:09.3+2:51:38.7+85.60%53.88%-26.82%-36.31%
3714Bill Howes100 Marathon Club Solo70M 6:26:34.9+3:06:04.3+92.80%51.87%-31.73%-41.59%
3815Pauline Howes100 Marathon Club Solo68F 6:26:35.2+3:06:04.6+92.80%51.87%-31.74%-41.59%
398Chris MatherWolds Veteran RC Solo48M 6:37:51.7+3:17:21.1+98.42%50.40%-35.58%-45.72%
4020Kathleen YoungCaistor RC Solo68F 6:59:32.1+3:39:01.5+109.23%47.79%-42.96%-53.66%
4121John Young Solo70M 7:25:31.7+4:05:01.1+122.20%45.00%-51.82%-63.18%
-38Tom CamponiAckworth Road Runners Solo34M DNF-----
-3Laura SutherlandCaistor RC Solo31F DNF-----
  • Team of 4
Place Bib Racer name Affiliation Category Finish time
1123Jonathan FowlerGrimsby Tri Club Team of 4 2:57:05.0--100%27.62%26.82%
2103Kirk RevelerMarra men Team of 4 3:11:21.0+14:16.0+8.06%92.54%21.79%20.92%
3112Sarah Wells Team of 4 3:13:52.8+16:47.8+9.49%91.34%20.76%19.87%
4121David Hodkinson3 Men and A Tri Baby Team of 4 3:16:43.5+19:38.5+11.09%90.02%19.59%18.70%
5129DAMIAN shawJust keep running Team of 4 3:29:32.1+32:27.1+18.33%84.51%14.36%13.40%
6120David BlastlandDi made us do it! Team of 4 3:31:46.1+34:41.1+19.59%83.62%13.44%12.48%
7127Gary ThomasFranklin College Team of 4 3:36:22.9+39:17.9+22.19%81.84%11.56%10.58%
8130Robert PritchardGYTRI Shufflers Team of 4 3:37:33.6+40:28.6+22.86%81.40%11.08%10.09%
9118James Braithwaite Team of 4 3:38:04.1+40:59.1+23.14%81.21%10.87%9.88%
10122Diane PrattMulti ability Team of 4 3:43:52.0+46:47.0+26.42%79.10%8.50%7.48%
11107Hannah SalahPace Cadets Team of 4 3:46:39.1+49:34.1+27.99%78.13%7.36%6.33%
12125Matthew StoreyTeam 2 - HR, BB, SN, SN Team of 4 3:55:40.5+58:35.5+33.09%75.14%3.67%2.60%
13111Hannah SmithCaistor fab 4 Team of 4 3:58:26.3+1:01:21.3+34.65%74.27%2.54%1.46%
14104Caroline Whitfield Team of 4 4:01:58.2+1:04:53.2+36.64%73.18%1.10%0.00%
15102Frankie Thomas Team of 4 4:03:09.7+1:06:04.7+37.31%72.83%0.61%-0.49%
16124Matthew StoreyTeam 1 - AK, LC, LB, LC Team of 4 4:08:13.7+1:11:08.7+40.18%71.34%-1.46%-2.59%
17131Jo Ramsay Team of 4 4:12:39.2+1:15:34.2+42.67%70.09%-3.27%-4.42%
18110Leah Maddison Team of 4 4:17:20.2+1:20:15.2+45.32%68.81%-5.18%-6.35%
19101Anne-Marie FowlerClee Belles Team of 4 4:19:04.6+1:21:59.6+46.30%68.35%-5.89%-7.07%
20106adrian joyce Team of 4 4:19:09.5+1:22:04.5+46.35%68.33%-5.92%-7.10%
21119Lucy Bell Team of 4 4:26:53.8+1:29:48.8+50.72%66.35%-9.09%-10.30%
22105michelle hewsonBlister Sisters Team of 4 4:39:42.6+1:42:37.6+57.95%63.31%-14.32%-15.60%
23126Matt StoreyTeam 3: Watford Team of 4 4:42:40.0+1:45:35.0+59.62%62.65%-15.53%-16.82%
24113Sue BurtonCRC Sali forth Team of 4 5:01:52.6+2:04:47.6+70.47%58.66%-23.39%-24.76%
25115James Braithwaite Team of 4 5:09:10.1+2:12:05.1+74.59%57.28%-26.37%-27.77%
26116James Braithwaite Team of 4 5:14:41.4+2:17:36.4+77.71%56.27%-28.62%-30.05%
27114James Braithwaite Team of 4 5:32:18.4+2:35:13.4+87.66%53.29%-35.82%-37.33%